Time;durP1;ratioP1;P1;durP2;ratioP2;P2;SDS_P1;SDS_P2;PMS_P1;PMS_P2;Temp;Humidity;BMP_temperature;BMP_pressure;BME280_temperature;BME280_humidity;BME280_pressure;Samples;Min_cycle;Max_cycle;Signal;HPM_P1;HPM_P2
2023/03/10 00:01:19;;;;;;;2.53;2.33;;;7.70;99.90;;;;;;5012755;28;20254;-89
2023/03/10 00:03:48;;;;;;;3.40;2.80;;;7.60;99.90;;;;;;5012830;28;20228;-89
2023/03/10 00:06:20;;;;;;;6.93;3.65;;;7.50;99.90;;;;;;5012467;28;20258;-89
2023/03/10 00:08:49;;;;;;;5.50;3.00;;;7.40;99.90;;;;;;5025567;28;20230;-88
2023/03/10 00:11:18;;;;;;;8.05;3.10;;;7.50;99.90;;;;;;5032123;28;20547;-89
2023/03/10 00:13:47;;;;;;;3.10;2.80;;;7.50;99.90;;;;;;5031931;28;20228;-89
2023/03/10 00:16:18;;;;;;;3.78;2.97;;;7.60;99.90;;;;;;5031767;28;20286;-90
2023/03/10 00:18:46;;;;;;;3.67;2.67;;;7.50;99.90;;;;;;5031258;28;20211;-89
2023/03/10 00:21:18;;;;;;;3.05;2.80;;;7.60;99.90;;;;;;5031924;28;20225;-89
2023/03/10 00:23:46;;;;;;;4.23;3.17;;;7.60;99.90;;;;;;5031605;28;20458;-90
2023/03/10 00:26:16;;;;;;;3.20;2.85;;;7.60;99.90;;;;;;5030896;28;25075;-89
2023/03/10 00:28:45;;;;;;;4.03;3.08;;;7.60;99.90;;;;;;5032661;28;20244;-89
2023/03/10 00:31:16;;;;;;;8.07;2.53;;;7.60;99.90;;;;;;5034664;28;20217;-89
2023/03/10 00:33:45;;;;;;;4.35;2.78;;;7.60;99.90;;;;;;5035183;28;20308;-89
2023/03/10 00:36:16;;;;;;;3.17;2.88;;;7.60;99.90;;;;;;5052506;28;20240;-89
2023/03/10 00:38:46;;;;;;;4.28;3.10;;;7.60;99.90;;;;;;5050098;28;20237;-90
2023/03/10 00:41:17;;;;;;;2.70;2.42;;;7.70;99.90;;;;;;5034250;28;20307;-90
2023/03/10 00:43:46;;;;;;;3.15;2.60;;;7.70;99.90;;;;;;5034450;28;20296;-89
2023/03/10 00:46:15;;;;;;;9.55;3.42;;;7.70;99.90;;;;;;5033880;28;20228;-89
2023/03/10 00:48:43;;;;;;;3.13;2.83;;;7.70;99.90;;;;;;5033283;28;20263;-89
2023/03/10 00:51:12;;;;;;;3.67;2.90;;;7.70;99.90;;;;;;5034226;28;20229;-89
2023/03/10 00:53:41;;;;;;;2.92;2.72;;;7.70;99.90;;;;;;5034182;28;20217;-89
2023/03/10 00:56:13;;;;;;;2.58;2.38;;;7.60;99.90;;;;;;5033871;28;20229;-89
2023/03/10 00:58:42;;;;;;;3.17;2.85;;;7.50;99.90;;;;;;5032194;28;20203;-89
2023/03/10 01:01:14;;;;;;;2.75;2.45;;;7.50;99.90;;;;;;5034212;28;20291;-88
2023/03/10 01:03:43;;;;;;;3.85;3.05;;;7.40;99.90;;;;;;5033732;28;20265;-89
2023/03/10 01:06:11;;;;;;;4.97;3.05;;;7.40;99.90;;;;;;5033504;28;20262;-89
2023/03/10 01:08:39;;;;;;;2.80;2.60;;;7.40;99.90;;;;;;5032756;28;20227;-89
2023/03/10 01:11:08;;;;;;;7.68;2.80;;;7.30;99.90;;;;;;5033234;28;20272;-89
2023/03/10 01:13:38;;;;;;;2.58;2.38;;;7.30;99.90;;;;;;5033285;28;20202;-89
2023/03/10 01:16:08;;;;;;;3.75;3.00;;;7.30;99.90;;;;;;5033241;28;20214;-89
2023/03/10 01:18:36;;;;;;;3.80;2.72;;;7.20;99.90;;;;;;5032315;28;20286;-89
2023/03/10 01:21:06;;;;;;;7.20;3.55;;;7.20;99.90;;;;;;5033670;28;20236;-89
2023/03/10 01:23:34;;;;;;;4.75;3.30;;;7.20;99.90;;;;;;5033564;28;20215;-89
2023/03/10 01:26:02;;;;;;;3.55;3.22;;;7.10;99.90;;;;;;5034033;28;20199;-89
2023/03/10 01:28:31;;;;;;;5.47;3.03;;;7.10;99.90;;;;;;5033779;28;20280;-90
2023/03/10 01:31:01;;;;;;;4.45;3.47;;;7.10;99.90;;;;;;5033242;28;20237;-89
2023/03/10 01:33:29;;;;;;;4.05;3.03;;;7.10;99.90;;;;;;5033107;28;20217;-89
2023/03/10 01:35:57;;;;;;;2.97;2.67;;;7.10;99.90;;;;;;5033249;28;20320;-89
2023/03/10 01:38:26;;;;;;;3.17;2.88;;;7.10;99.90;;;;;;5032871;28;20221;-89
2023/03/10 01:40:54;;;;;;;2.85;2.65;;;7.10;99.90;;;;;;5033342;28;20257;-88
2023/03/10 01:43:30;;;;;;;4.90;3.05;;;7.00;99.90;;;;;;5033318;28;20300;-89
2023/03/10 01:46:37;;;;;;;2.50;2.30;;;7.00;99.90;;;;;;5032876;28;20257;-88
2023/03/10 01:49:12;;;;;;;3.88;3.35;;;7.00;99.90;;;;;;5032712;28;20227;-89
2023/03/10 01:51:43;;;;;;;3.00;2.80;;;6.90;99.90;;;;;;5036076;28;20217;-88
2023/03/10 01:54:17;;;;;;;1.75;1.65;;;6.90;99.90;;;;;;5038745;28;20239;-88
2023/03/10 01:56:46;;;;;;;7.50;2.80;;;6.80;99.90;;;;;;5037292;28;20293;-88
2023/03/10 01:59:15;;;;;;;2.78;2.28;;;6.80;99.90;;;;;;5035048;28;20237;-88
2023/03/10 02:01:46;;;;;;;5.15;2.70;;;6.70;99.90;;;;;;5039376;28;20311;-88
2023/03/10 02:04:20;;;;;;;3.42;2.60;;;6.60;99.90;;;;;;5034452;28;20221;-89
2023/03/10 02:06:48;;;;;;;3.20;2.90;;;6.60;99.90;;;;;;5032731;28;20335;-89
2023/03/10 02:09:18;;;;;;;6.28;3.15;;;6.50;99.90;;;;;;5035592;28;20240;-89
2023/03/10 02:11:48;;;;;;;2.42;2.28;;;6.50;99.90;;;;;;5031161;28;20213;-89
2023/03/10 02:14:17;;;;;;;3.13;2.17;;;6.40;99.90;;;;;;5032642;28;20217;-89
2023/03/10 02:16:47;;;;;;;4.55;2.72;;;6.30;99.90;;;;;;5031622;28;20221;-89
2023/03/10 02:19:27;;;;;;;2.55;2.35;;;6.40;99.90;;;;;;5032625;28;20222;-89
2023/03/10 02:22:05;;;;;;;2.70;2.50;;;6.30;99.90;;;;;;5038244;28;20213;-89
2023/03/10 02:24:43;;;;;;;4.30;2.85;;;6.30;99.90;;;;;;5039410;28;20217;-89
2023/03/10 02:27:16;;;;;;;2.70;2.50;;;6.30;99.90;;;;;;5028492;28;20232;-89
2023/03/10 02:29:50;;;;;;;3.60;2.65;;;6.30;99.90;;;;;;5038574;28;20229;-88
2023/03/10 02:32:29;;;;;;;2.58;2.38;;;6.30;99.90;;;;;;5038923;28;20198;-88
2023/03/10 02:34:57;;;;;;;2.47;2.28;;;6.30;99.90;;;;;;5038616;28;20207;-89
2023/03/10 02:37:29;;;;;;;4.05;3.13;;;6.30;99.90;;;;;;5038370;28;20218;-89
2023/03/10 02:39:58;;;;;;;2.15;2.05;;;6.30;99.90;;;;;;5038981;28;20244;-88
2023/03/10 02:42:32;;;;;;;4.65;2.72;;;6.30;99.90;;;;;;5039075;28;20229;-88
2023/03/10 02:45:02;;;;;;;3.58;2.85;;;6.30;99.90;;;;;;5038970;28;20209;-88
2023/03/10 02:47:31;;;;;;;4.38;2.60;;;6.30;99.90;;;;;;5038222;28;20198;-89
2023/03/10 02:49:59;;;;;;;4.10;3.22;;;6.20;99.90;;;;;;5039354;28;20226;-88
2023/03/10 02:52:34;;;;;;;5.07;3.42;;;6.20;99.90;;;;;;5038850;28;20216;-88
2023/03/10 02:55:03;;;;;;;2.60;2.40;;;6.20;99.90;;;;;;5039257;28;20224;-89
2023/03/10 02:57:32;;;;;;;4.10;3.38;;;6.20;99.90;;;;;;5038492;28;20244;-88
2023/03/10 03:00:01;;;;;;;5.07;3.45;;;6.10;99.90;;;;;;5039124;28;20321;-89
2023/03/10 03:02:31;;;;;;;2.80;2.35;;;6.10;99.90;;;;;;5038890;28;20208;-89
2023/03/10 03:05:00;;;;;;;3.67;2.80;;;6.10;99.90;;;;;;5038439;28;20256;-89
2023/03/10 03:07:28;;;;;;;2.50;2.30;;;6.10;99.90;;;;;;5038644;28;20303;-88
2023/03/10 03:09:57;;;;;;;2.45;2.08;;;6.10;99.90;;;;;;5039328;28;20233;-90
2023/03/10 03:12:25;;;;;;;3.20;2.20;;;6.10;99.90;;;;;;5039094;28;20199;-89
2023/03/10 03:14:55;;;;;;;2.50;2.08;;;6.00;99.90;;;;;;5038531;28;20225;-89
2023/03/10 03:17:23;;;;;;;6.95;2.88;;;6.00;99.90;;;;;;5038070;28;20312;-89
2023/03/10 03:19:52;;;;;;;3.97;2.83;;;6.00;99.90;;;;;;5038787;28;20225;-89
2023/03/10 03:22:20;;;;;;;3.33;2.50;;;6.10;99.90;;;;;;5039302;28;20212;-89
2023/03/10 03:24:49;;;;;;;2.60;2.40;;;6.10;99.90;;;;;;5043730;28;20232;-87
2023/03/10 03:27:17;;;;;;;3.17;2.70;;;6.10;99.90;;;;;;5059528;28;20266;-88
2023/03/10 03:29:45;;;;;;;3.17;2.42;;;6.10;99.90;;;;;;5043386;28;20230;-88
2023/03/10 03:32:15;;;;;;;2.40;2.20;;;6.10;99.90;;;;;;5036604;28;20198;-89
2023/03/10 03:34:44;;;;;;;2.42;2.13;;;6.10;99.90;;;;;;5034765;28;20203;-89
2023/03/10 03:37:12;;;;;;;3.15;2.65;;;6.10;99.90;;;;;;5034413;28;20217;-89
2023/03/10 03:39:40;;;;;;;2.80;2.35;;;6.10;99.90;;;;;;5035356;28;20229;-89
2023/03/10 03:42:09;;;;;;;3.25;2.63;;;6.10;99.90;;;;;;5035052;28;20289;-89
2023/03/10 03:44:37;;;;;;;2.95;2.50;;;6.00;99.90;;;;;;5035187;28;20210;-89
2023/03/10 03:47:07;;;;;;;1.95;1.85;;;6.00;99.90;;;;;;5034625;28;20198;-89
2023/03/10 03:49:37;;;;;;;6.50;2.72;;;6.00;99.90;;;;;;5035040;28;20282;-89
2023/03/10 03:52:07;;;;;;;2.20;2.00;;;6.00;99.90;;;;;;5035289;28;20233;-89
2023/03/10 03:54:35;;;;;;;12.52;2.55;;;6.00;99.90;;;;;;5035482;28;20206;-88
2023/03/10 03:57:04;;;;;;;9.45;2.58;;;6.00;99.90;;;;;;5035029;28;20222;-88
2023/03/10 03:59:32;;;;;;;2.88;2.40;;;5.90;99.90;;;;;;5034751;28;20229;-89
2023/03/10 04:02:00;;;;;;;5.00;3.25;;;5.90;99.90;;;;;;5034825;28;25069;-88
2023/03/10 04:04:29;;;;;;;2.17;1.97;;;5.80;99.90;;;;;;5034756;28;20224;-89
2023/03/10 04:06:59;;;;;;;4.35;2.55;;;5.80;99.90;;;;;;5034398;28;20452;-89
2023/03/10 04:09:27;;;;;;;3.83;3.00;;;5.80;99.90;;;;;;5034721;28;20247;-89
2023/03/10 04:11:56;;;;;;;2.85;2.45;;;5.70;99.90;;;;;;5034893;28;20221;-89
2023/03/10 04:14:24;;;;;;;;;;;5.70;99.90;;;;;;5035203;28;20238;-88
2023/03/10 04:16:52;;;;;;;;;;;5.70;99.90;;;;;;5034508;28;20259;-89
2023/03/10 04:19:20;;;;;;;;;;;5.60;99.90;;;;;;5034832;28;20292;-89
2023/03/10 04:21:48;;;;;;;2.60;2.40;;;5.50;99.90;;;;;;5034771;28;20225;-89
2023/03/10 04:24:18;;;;;;;3.67;2.75;;;5.50;99.90;;;;;;5034376;28;20209;-88
2023/03/10 04:26:46;;;;;;;2.55;2.35;;;5.50;99.90;;;;;;5033679;28;20289;-89
2023/03/10 04:29:15;;;;;;;3.00;2.10;;;5.50;99.90;;;;;;5034288;28;20226;-88
2023/03/10 04:31:43;;;;;;;4.85;2.97;;;5.50;99.90;;;;;;5033675;28;20202;-89
2023/03/10 04:34:26;;;;;;;1.77;1.67;;;5.50;99.90;;;;;;5034192;28;20209;-88
2023/03/10 04:36:54;;;;;;;3.05;2.67;;;5.50;99.90;;;;;;5033541;28;20229;-88
2023/03/10 04:39:24;;;;;;;2.83;2.15;;;5.50;99.90;;;;;;5034051;28;20226;-88
2023/03/10 04:41:52;;;;;;;2.85;2.60;;;5.50;99.90;;;;;;5034289;28;20233;-89
2023/03/10 04:44:20;;;;;;;5.38;3.22;;;5.50;99.90;;;;;;5034028;28;20285;-89
2023/03/10 04:46:58;;;;;;;3.13;2.22;;;5.40;99.90;;;;;;5033367;28;20207;-89
2023/03/10 04:49:29;;;;;;;3.70;2.78;;;5.50;99.90;;;;;;5034083;28;20226;-88
2023/03/10 04:52:00;;;;;;;2.72;2.33;;;5.40;99.90;;;;;;5034306;28;20202;-87
2023/03/10 04:54:30;;;;;;;8.15;3.83;;;5.40;99.90;;;;;;5034320;28;20226;-89
2023/03/10 04:56:58;;;;;;;3.58;2.97;;;5.40;99.90;;;;;;5032890;28;20222;-89
2023/03/10 04:59:27;;;;;;;3.63;3.05;;;5.40;99.90;;;;;;5033722;28;20226;-89
2023/03/10 05:01:55;;;;;;;2.65;2.45;;;5.40;99.90;;;;;;5033734;28;20284;-89
2023/03/10 05:04:23;;;;;;;3.55;2.88;;;5.40;99.90;;;;;;5033775;28;20202;-87
2023/03/10 05:06:52;;;;;;;2.92;2.53;;;5.40;99.90;;;;;;5032928;28;20203;-88
2023/03/10 05:09:21;;;;;;;3.30;2.60;;;5.40;99.90;;;;;;5033558;28;20290;-88
2023/03/10 05:11:51;;;;;;;3.15;2.45;;;5.40;99.90;;;;;;5033439;28;20202;-89
2023/03/10 05:14:19;;;;;;;3.10;2.80;;;5.40;99.90;;;;;;5033738;28;20226;-88
2023/03/10 05:16:48;;;;;;;9.98;3.28;;;5.40;99.90;;;;;;5033106;28;20205;-89
2023/03/10 05:19:17;;;;;;;2.83;2.63;;;5.30;99.90;;;;;;5040581;28;20215;-88
2023/03/10 05:21:45;;;;;;;6.13;3.30;;;5.30;99.90;;;;;;5034870;28;20306;-88
2023/03/10 05:24:14;;;;;;;2.88;2.65;;;5.30;99.90;;;;;;5034384;28;20258;-88
2023/03/10 05:26:42;;;;;;;6.55;3.05;;;5.30;99.90;;;;;;5032797;28;20214;-89
2023/03/10 05:29:12;;;;;;;13.05;2.88;;;5.30;99.90;;;;;;5033116;28;20244;-88
2023/03/10 05:31:40;;;;;;;2.65;2.45;;;5.30;99.90;;;;;;5033857;28;20273;-88
2023/03/10 05:34:09;;;;;;;2.50;2.30;;;5.20;99.90;;;;;;5025579;28;20198;-88
2023/03/10 05:36:37;;;;;;;6.80;2.90;;;5.30;99.90;;;;;;5025973;28;20288;-88
2023/03/10 05:39:08;;;;;;;3.13;2.38;;;5.30;99.90;;;;;;5032828;28;20233;-88
2023/03/10 05:41:37;;;;;;;2.70;2.47;;;5.40;99.90;;;;;;5033564;28;20206;-88
2023/03/10 05:44:05;;;;;;;5.75;2.92;;;5.40;99.90;;;;;;5033249;28;20298;-88
2023/03/10 05:46:35;;;;;;;3.03;2.72;;;5.40;99.90;;;;;;5033264;28;20207;-88
2023/03/10 05:49:03;;;;;;;3.35;2.80;;;5.50;99.90;;;;;;5032672;28;20206;-89
2023/03/10 05:51:32;;;;;;;2.53;2.33;;;5.50;99.90;;;;;;5033311;28;20210;-88
2023/03/10 05:54:00;;;;;;;3.38;3.08;;;5.60;99.90;;;;;;5033156;28;20276;-87
2023/03/10 05:56:28;;;;;;;4.25;3.17;;;5.60;99.90;;;;;;5031969;28;20305;-88
2023/03/10 05:58:57;;;;;;;3.08;2.83;;;5.70;99.90;;;;;;5032581;28;20214;-88
2023/03/10 06:01:25;;;;;;;4.10;3.40;;;5.70;99.90;;;;;;5032997;28;20210;-88
2023/03/10 06:03:56;;;;;;;5.32;3.22;;;5.80;99.90;;;;;;5033066;28;20302;-88
2023/03/10 06:06:24;;;;;;;4.50;3.38;;;5.80;99.90;;;;;;5033199;28;20206;-89
2023/03/10 06:08:52;;;;;;;3.55;3.25;;;5.90;99.90;;;;;;5033075;28;20289;-88
2023/03/10 06:11:21;;;;;;;3.90;2.55;;;6.00;99.90;;;;;;5033474;28;20198;-88
2023/03/10 06:13:49;;;;;;;6.25;4.18;;;6.00;99.90;;;;;;5033204;28;20302;-88
2023/03/10 06:16:18;;;;;;;5.00;3.75;;;6.10;99.90;;;;;;5037059;28;20194;-89
2023/03/10 06:18:46;;;;;;;2.42;2.17;;;6.10;99.90;;;;;;5052216;28;20233;-87
2023/03/10 06:21:18;;;;;;;3.53;2.72;;;6.10;99.90;;;;;;5034848;28;20216;-89
2023/03/10 06:23:47;;;;;;;4.25;3.08;;;6.20;99.90;;;;;;5032762;28;20205;-89
2023/03/10 06:26:16;;;;;;;10.93;3.70;;;6.20;99.90;;;;;;5033159;28;20230;-89
2023/03/10 06:28:46;;;;;;;2.42;2.17;;;6.20;99.90;;;;;;5032499;28;20237;-88
2023/03/10 06:31:17;;;;;;;2.25;2.05;;;6.20;99.90;;;;;;5032448;28;20210;-89
2023/03/10 06:33:45;;;;;;;2.92;2.42;;;6.30;99.90;;;;;;5032370;28;20208;-89
2023/03/10 06:36:16;;;;;;;4.72;2.80;;;6.30;99.90;;;;;;5032515;28;20366;-89
2023/03/10 06:38:44;;;;;;;3.60;2.53;;;6.40;99.90;;;;;;5031920;28;20230;-89
2023/03/10 06:41:13;;;;;;;3.33;2.35;;;6.50;99.90;;;;;;5032726;28;20226;-89
2023/03/10 06:43:41;;;;;;;2.30;2.10;;;6.60;99.90;;;;;;5031903;28;20210;-88
2023/03/10 06:46:11;;;;;;;4.40;2.70;;;6.70;99.90;;;;;;5030903;28;20202;-82
2023/03/10 06:48:41;;;;;;;5.97;2.00;;;6.80;99.90;;;;;;5031798;28;20241;-82
2023/03/10 06:51:11;;;;;;;4.22;2.50;;;6.90;99.90;;;;;;5031748;28;20247;-83
2023/03/10 06:53:41;;;;;;;2.38;2.17;;;7.00;99.90;;;;;;5021158;28;20206;-82
2023/03/10 06:56:13;;;;;;;2.13;1.95;;;7.00;99.90;;;;;;5032160;28;20202;-82
2023/03/10 06:58:42;;;;;;;4.50;2.72;;;7.10;99.90;;;;;;5030283;28;20230;-83
2023/03/10 07:01:22;;;;;;;4.43;2.70;;;7.10;99.90;;;;;;5031682;28;20237;-82
2023/03/10 07:03:51;;;;;;;2.65;2.17;;;7.10;99.90;;;;;;5029656;28;20198;-79
2023/03/10 07:06:20;;;;;;;2.45;2.25;;;7.20;99.90;;;;;;5031996;28;20202;-79
2023/03/10 07:08:50;;;;;;;3.08;2.78;;;7.20;99.90;;;;;;5034736;28;20202;-79
2023/03/10 07:11:19;;;;;;;3.15;2.58;;;7.30;99.90;;;;;;5035478;28;20237;-82
2023/03/10 07:13:50;;;;;;;3.45;3.10;;;7.30;99.90;;;;;;5035716;28;20207;-82
2023/03/10 07:16:19;;;;;;;3.65;2.47;;;7.40;99.90;;;;;;5035956;28;20214;-82
2023/03/10 07:18:49;;;;;;;5.70;3.35;;;7.40;99.90;;;;;;5035166;28;20217;-79
2023/03/10 07:21:20;;;;;;;2.95;2.75;;;7.50;99.90;;;;;;5035592;28;20214;-80
2023/03/10 07:23:50;;;;;;;6.55;3.28;;;7.50;99.90;;;;;;5035775;28;20214;-79
2023/03/10 07:26:18;;;;;;;4.32;3.03;;;7.50;99.90;;;;;;5034675;28;20198;-79
2023/03/10 07:28:47;;;;;;;4.55;2.92;;;7.60;99.90;;;;;;5034811;28;20213;-78
2023/03/10 07:31:18;;;;;;;4.90;2.80;;;7.70;99.90;;;;;;5034538;28;20207;-80
2023/03/10 07:33:48;;;;;;;3.65;2.97;;;7.70;99.90;;;;;;5035887;28;20225;-80
2023/03/10 07:36:22;;;;;;;3.33;3.03;;;7.80;99.90;;;;;;5035769;28;20211;-82
2023/03/10 07:38:52;;;;;;;3.53;3.22;;;7.90;99.90;;;;;;5034216;28;20218;-80
2023/03/10 07:41:21;;;;;;;3.15;2.88;;;8.00;99.90;;;;;;5035875;28;20293;-80
2023/03/10 07:43:55;;;;;;;5.22;3.28;;;8.10;99.90;;;;;;5035258;28;20216;-80
2023/03/10 07:46:24;;;;;;;3.05;2.83;;;8.10;99.90;;;;;;5035652;28;20211;-83
2023/03/10 07:48:55;;;;;;;2.78;2.58;;;8.20;99.90;;;;;;5034404;28;20258;-78
2023/03/10 07:51:23;;;;;;;14.40;4.03;;;8.30;99.90;;;;;;5034620;28;20190;-81
2023/03/10 07:53:53;;;;;;;3.50;3.20;;;8.40;99.90;;;;;;5038598;28;20224;-82
2023/03/10 07:56:21;;;;;;;4.00;3.13;;;8.50;99.90;;;;;;5034853;28;20209;-81
2023/03/10 07:58:50;;;;;;;6.75;3.83;;;8.60;99.90;;;;;;5034267;28;20226;-81
2023/03/10 08:01:20;;;;;;;4.88;3.63;;;8.70;99.90;;;;;;5035341;28;20229;-82
2023/03/10 08:03:49;;;;;;;5.18;3.30;;;8.80;99.90;;;;;;5034883;28;20199;-82
2023/03/10 08:06:20;;;;;;;4.05;3.38;;;8.90;99.90;;;;;;5034745;28;20237;-81
2023/03/10 08:08:52;;;;;;;7.40;3.35;;;8.90;99.90;;;;;;5034271;28;20210;-82
2023/03/10 08:11:23;;;;;;;5.20;3.40;;;9.10;99.90;;;;;;5034692;28;20198;-82
2023/03/10 08:13:52;;;;;;;6.72;3.90;;;9.20;99.90;;;;;;5034605;28;20198;-79
2023/03/10 08:16:22;;;;;;;4.15;3.75;;;9.30;99.90;;;;;;5034385;28;20229;-79
2023/03/10 08:18:52;;;;;;;4.05;3.65;;;9.40;99.90;;;;;;5033595;28;20214;-79
2023/03/10 08:21:25;;;;;;;4.68;3.65;;;9.50;99.90;;;;;;5033881;28;20191;-78
2023/03/10 08:23:56;;;;;;;4.13;3.40;;;9.70;99.90;;;;;;5052065;28;20216;-79
2023/03/10 08:26:24;;;;;;;4.30;3.88;;;9.90;99.90;;;;;;5047937;28;20198;-81
2023/03/10 08:28:52;;;;;;;4.05;3.63;;;10.00;99.90;;;;;;5033781;28;20221;-82
2023/03/10 08:31:21;;;;;;;4.10;3.67;;;10.10;99.90;;;;;;5046408;28;20233;-83
2023/03/10 08:33:50;;;;;;;4.15;3.63;;;10.20;99.90;;;;;;5051028;28;20287;-82
2023/03/10 08:36:21;;;;;;;5.00;3.70;;;10.30;99.90;;;;;;5054377;28;20239;-81
2023/03/10 08:38:51;;;;;;;4.05;3.65;;;10.50;99.90;;;;;;5040822;28;20229;-83
2023/03/10 08:41:24;;;;;;;3.05;2.75;;;10.60;99.90;;;;;;5034401;28;20229;-84
2023/03/10 08:43:53;;;;;;;5.05;3.60;;;10.70;99.90;;;;;;5034481;28;20232;-80
2023/03/10 08:46:24;;;;;;;3.28;3.03;;;11.00;99.90;;;;;;5033584;28;20206;-80
2023/03/10 08:48:54;;;;;;;2.80;2.60;;;11.20;99.90;;;;;;5041106;28;20278;-79
2023/03/10 08:51:26;;;;;;;5.70;2.97;;;11.30;99.90;;;;;;5054078;28;20209;-82
2023/03/10 08:53:55;;;;;;;11.70;3.90;;;11.40;99.90;;;;;;5035381;28;20260;-79
2023/03/10 08:56:25;;;;;;;5.67;3.20;;;11.60;99.90;;;;;;5034220;28;20235;-79
2023/03/10 08:58:57;;;;;;;3.05;2.15;;;11.80;99.90;;;;;;5033224;28;20311;-83
2023/03/10 09:01:27;;;;;;;3.65;3.10;;;12.00;99.90;;;;;;5033790;28;20255;-81
2023/03/10 09:03:55;;;;;;;2.38;2.17;;;12.40;99.90;;;;;;5033406;28;20222;-81
2023/03/10 09:06:24;;;;;;;4.97;3.17;;;12.50;99.90;;;;;;5033723;28;20209;-82
2023/03/10 09:08:53;;;;;;;3.05;2.85;;;12.90;99.90;;;;;;5013524;28;20222;-81
2023/03/10 09:11:26;;;;;;;3.35;2.75;;;13.20;99.90;;;;;;5013559;28;20210;-81
2023/03/10 09:13:56;;;;;;;2.25;2.00;;;13.60;99.90;;;;;;5014155;28;20321;-81
2023/03/10 09:16:24;;;;;;;3.30;2.65;;;14.80;99.90;;;;;;5013737;28;20222;-81
2023/03/10 09:18:56;;;;;;;2.88;2.35;;;15.80;99.90;;;;;;5013695;28;20222;-81
2023/03/10 09:21:25;;;;;;;2.97;2.55;;;16.30;99.90;;;;;;5013854;28;20249;-79
2023/03/10 09:23:53;;;;;;;4.13;2.80;;;17.30;99.50;;;;;;5013784;28;20217;-79
2023/03/10 09:26:22;;;;;;;2.53;2.33;;;18.30;97.80;;;;;;5028096;28;20224;-79
2023/03/10 09:28:52;;;;;;;2.67;2.47;;;18.70;96.20;;;;;;5035894;28;20231;-82
2023/03/10 09:31:28;;;;;;;4.32;2.88;;;19.60;94.50;;;;;;5051339;28;20193;-79
2023/03/10 09:33:59;;;;;;;2.97;2.65;;;20.20;92.40;;;;;;5035635;28;20209;-80
2023/03/10 09:36:29;;;;;;;3.72;3.00;;;20.70;90.30;;;;;;5033318;28;20297;-82
2023/03/10 09:39:18;;;;;;;3.65;2.97;;;21.00;88.90;;;;;;5033189;28;20312;-82
2023/03/10 09:42:26;;;;;;;4.10;3.03;;;20.80;87.70;;;;;;5032960;28;20265;-81
2023/03/10 09:45:20;;;;;;;4.82;4.25;;;21.30;86.40;;;;;;5032268;28;20226;-81
2023/03/10 09:48:03;;;;;;;7.35;4.35;;;22.00;85.30;;;;;;5031802;28;20091;-81
2023/03/10 09:50:35;;;;;;;6.63;4.20;;;22.20;82.90;;;;;;5032853;28;20126;-81
2023/03/10 09:53:07;;;;;;;;;;;21.90;81.40;;;;;;5033118;28;20049;-81
2023/03/10 09:55:37;;;;;;;;;;;21.70;82.80;;;;;;5032333;28;19982;-81
2023/03/10 09:58:18;;;;;;;4.30;3.90;;;21.60;82.90;;;;;;5032450;28;19965;-82
2023/03/10 10:00:49;;;;;;;5.05;4.47;;;21.70;82.70;;;;;;5032489;28;20250;-79
2023/03/10 10:03:19;;;;;;;;;;;21.70;82.10;;;;;;5015573;28;20065;-79
2023/03/10 10:05:49;;;;;;;;;;;22.10;81.70;;;;;;5013533;28;19925;-81
2023/03/10 10:08:21;;;;;;;;;;;22.30;80.40;;;;;;5013010;28;19953;-81
2023/03/10 10:10:51;;;;;;;;;;;21.50;80.20;;;;;;5032063;28;19925;-81
2023/03/10 10:13:21;;;;;;;;;;;21.70;81.20;;;;;;5033301;28;19931;-81
2023/03/10 10:15:59;;;;;;;7.00;4.60;;;22.00;79.60;;;;;;5032538;28;19964;-81
2023/03/10 10:18:51;;;;;;;;;;;21.70;79.10;;;;;;5032467;28;19932;-82
2023/03/10 10:21:22;;;;;;;;;;;21.60;78.10;;;;;;5032722;28;20031;-82
2023/03/10 10:23:55;;;;;;;;;;;21.40;79.50;;;;;;5032692;28;20169;-82
2023/03/10 10:26:25;;;;;;;;;;;21.40;80.50;;;;;;5032342;28;20140;-81
2023/03/10 10:28:55;;;;;;;8.13;5.05;;;21.50;79.00;;;;;;5031824;28;20237;-81
2023/03/10 10:31:27;;;;;;;5.65;5.07;;;21.20;80.40;;;;;;5032680;28;20223;-81
2023/03/10 10:33:58;;;;;;;5.25;4.75;;;21.10;79.60;;;;;;5031941;28;20219;-81
2023/03/10 10:36:29;;;;;;;7.65;4.68;;;21.00;81.90;;;;;;5033117;28;20225;-82
2023/03/10 10:38:59;;;;;;;6.18;4.72;;;21.00;81.90;;;;;;5031582;28;20127;-82
2023/03/10 10:41:30;;;;;;;;;;;21.00;82.10;;;;;;5033176;28;20053;-81
2023/03/10 10:44:05;;;;;;;;;;;21.30;81.30;;;;;;5036979;28;19982;-81
2023/03/10 10:46:36;;;;;;;;;;;21.70;80.90;;;;;;5036714;28;19920;-79
2023/03/10 10:49:07;;;;;;;4.93;4.35;;;22.40;80.50;;;;;;5054013;28;20154;-84
2023/03/10 10:51:37;;;;;;;5.88;5.28;;;22.70;80.80;;;;;;5046073;28;20244;-82
2023/03/10 10:54:22;;;;;;;11.38;5.00;;;22.80;80.70;;;;;;5036362;28;20224;-80
2023/03/10 10:56:54;;;;;;;10.45;4.70;;;23.00;80.80;;;;;;5036078;28;20240;-83
2023/03/10 10:59:26;;;;;;;;;;;23.10;79.80;;;;;;5037527;28;20078;-84
2023/03/10 11:01:56;;;;;;;;;;;23.40;80.20;;;;;;5036276;28;19975;-87
2023/03/10 11:04:26;;;;;;;;;;;23.40;78.50;;;;;;5036901;28;19953;-84
2023/03/10 11:07:07;;;;;;;;;;;23.10;77.60;;;;;;5036405;28;19941;-76
2023/03/10 11:09:35;;;;;;;;;;;22.70;78.80;;;;;;5035853;28;19965;-76
2023/03/10 11:12:05;;;;;;;;;;;22.20;79.40;;;;;;5036089;28;19942;-76
2023/03/10 11:14:44;;;;;;;;;;;21.90;79.30;;;;;;5036715;28;19952;-79
2023/03/10 11:17:15;;;;;;;;;;;21.90;79.50;;;;;;5035677;28;19951;-81
2023/03/10 11:19:52;;;;;;;;;;;22.00;79.20;;;;;;5036130;28;19964;-80
2023/03/10 11:22:24;;;;;;;;;;;22.00;79.50;;;;;;5035839;28;19972;-80
2023/03/10 11:24:56;;;;;;;;;;;22.30;78.40;;;;;;5036376;28;19949;-81
2023/03/10 11:27:30;;;;;;;;;;;22.40;77.00;;;;;;5035382;28;19951;-84
2023/03/10 11:30:03;;;;;;;;;;;22.30;75.90;;;;;;5035733;28;20054;-83
2023/03/10 11:32:39;;;;;;;;;;;22.20;75.90;;;;;;5035794;28;19960;-82
2023/03/10 11:35:13;;;;;;;;;;;22.30;74.10;;;;;;5035758;28;19970;-82
2023/03/10 11:37:43;;;;;;;;;;;22.40;72.20;;;;;;5035232;28;19956;-82
2023/03/10 11:40:18;;;;;;;;;;;22.00;72.50;;;;;;5045978;28;19962;-82
2023/03/10 11:42:50;;;;;;;;;;;21.90;72.70;;;;;;5055642;28;19946;-82
2023/03/10 11:45:26;;;;;;;;;;;21.70;73.00;;;;;;5055617;28;19958;-83
2023/03/10 11:48:07;;;;;;;;;;;21.10;73.50;;;;;;5055313;28;19953;-82
2023/03/10 11:50:39;;;;;;;;;;;21.30;74.40;;;;;;5055553;28;19959;-82
2023/03/10 11:53:12;;;;;;;;;;;21.00;73.50;;;;;;5054835;28;19957;-82
2023/03/10 11:55:41;;;;;;;;;;;20.80;74.40;;;;;;5055484;28;19948;-82
2023/03/10 11:58:18;;;;;;;;;;;20.50;75.10;;;;;;5054429;28;19967;-83
2023/03/10 12:00:46;;;;;;;;;;;20.00;76.20;;;;;;5038248;28;20050;-83
2023/03/10 12:03:19;;;;;;;;;;;19.50;77.40;;;;;;5035194;28;19949;-84
2023/03/10 12:05:49;;;;;;;;;;;19.20;77.60;;;;;;5035169;28;20011;-85
2023/03/10 12:08:18;;;;;;;;;;;19.20;78.40;;;;;;5034264;28;19948;-82
2023/03/10 12:10:48;;;;;;;;;;;19.50;79.00;;;;;;5033734;28;19964;-84
2023/03/10 12:13:22;;;;;;;;;;;19.50;78.20;;;;;;5032650;28;19973;-85
2023/03/10 12:15:52;;;;;;;;;;;19.40;78.30;;;;;;5033786;28;20003;-85
2023/03/10 12:18:22;;;;;;;;;;;19.30;78.70;;;;;;5034612;28;19950;-84
2023/03/10 12:21:17;;;;;;;;;;;19.10;79.30;;;;;;5044195;28;19961;-82
2023/03/10 12:23:49;;;;;;;;;;;19.20;79.50;;;;;;5005561;28;19949;-82
2023/03/10 12:26:31;;;;;;;;;;;19.40;79.50;;;;;;5015384;28;19985;-83
2023/03/10 12:29:14;;;;;;;;;;;19.80;79.30;;;;;;5017544;28;19938;-83
2023/03/10 12:31:46;;;;;;;;;;;19.70;78.90;;;;;;5035156;28;19957;-83
2023/03/10 12:34:17;;;;;;;;;;;19.90;78.60;;;;;;5034656;28;19942;-83
2023/03/10 12:36:46;;;;;;;;;;;19.90;78.30;;;;;;5034054;28;20038;-82
2023/03/10 12:39:25;;;;;;;;;;;20.00;79.30;;;;;;5034706;28;19969;-83
2023/03/10 12:41:53;;;;;;;;;;;20.60;78.80;;;;;;5034313;28;19970;-82
2023/03/10 12:44:30;;;;;;;;;;;20.90;77.10;;;;;;5035235;28;19955;-83
2023/03/10 12:47:00;;;;;;;;;;;21.30;76.10;;;;;;5033630;28;19951;-82
2023/03/10 12:49:36;;;;;;;;;;;21.80;76.10;;;;;;5034459;28;19970;-82
2023/03/10 12:52:14;;;;;;;;;;;21.90;74.70;;;;;;5034776;28;19948;-83
2023/03/10 12:54:47;;;;;;;;;;;22.00;74.60;;;;;;5034658;28;19949;-83
2023/03/10 12:57:18;;;;;;;;;;;21.90;73.40;;;;;;5033805;28;19959;-82
2023/03/10 12:59:50;;;;;;;;;;;21.50;73.80;;;;;;5034280;28;19960;-83
2023/03/10 13:02:24;;;;;;;;;;;21.20;74.70;;;;;;5034209;28;19956;-83
2023/03/10 13:04:57;;;;;;;;;;;20.70;74.70;;;;;;5034270;28;19949;-83
2023/03/10 13:07:28;;;;;;;;;;;20.70;75.10;;;;;;5033720;28;19938;-83
2023/03/10 13:09:57;;;;;;;;;;;20.80;75.50;;;;;;5034321;28;19971;-81
2023/03/10 13:12:27;;;;;;;;;;;21.40;75.40;;;;;;5034113;28;19949;-81
2023/03/10 13:14:57;;;;;;;;;;;22.10;74.80;;;;;;5033781;28;19945;-81
2023/03/10 13:17:26;;;;;;;;;;;22.50;72.70;;;;;;5033886;28;19954;-80
2023/03/10 13:20:00;;;;;;;;;;;22.70;71.40;;;;;;5034032;28;19963;-81
2023/03/10 13:22:28;;;;;;;;;;;22.50;71.20;;;;;;5033606;28;19961;-80
2023/03/10 13:24:57;;;;;;;;;;;22.10;71.70;;;;;;5034316;28;19948;-82
2023/03/10 13:27:29;;;;;;;;;;;21.90;72.00;;;;;;5033132;28;19946;-82
2023/03/10 13:29:58;;;;;;;;;;;21.70;72.60;;;;;;5033465;28;19951;-83
2023/03/10 13:32:26;;;;;;;;;;;21.40;72.40;;;;;;5033727;28;19951;-82